createdAt,value
2022-12-31T00:00:04.688Z,23.1
2022-12-31T00:01:04.493Z,23.1
2022-12-31T00:02:04.617Z,23.1
2022-12-31T00:03:04.697Z,23.1
2022-12-31T00:04:04.498Z,23.1
2022-12-31T00:05:04.570Z,23.1
2022-12-31T00:06:04.493Z,23.1
2022-12-31T00:07:04.519Z,23.0
2022-12-31T00:08:04.499Z,23.0
2022-12-31T00:09:04.475Z,23.0
2022-12-31T00:10:04.531Z,23.0
2022-12-31T00:11:04.502Z,23.0
2022-12-31T00:12:04.486Z,23.0
2022-12-31T00:13:04.463Z,23.0
2022-12-31T00:14:04.488Z,23.0
2022-12-31T00:15:04.498Z,23.0
2022-12-31T00:16:11.647Z,22.9
2022-12-31T00:17:04.518Z,22.9
2022-12-31T00:18:04.490Z,22.9
2022-12-31T00:19:04.476Z,22.9
2022-12-31T00:20:04.514Z,22.9
2022-12-31T00:21:04.478Z,22.9
2022-12-31T00:22:04.503Z,22.9
2022-12-31T00:23:04.505Z,22.9
2022-12-31T00:24:04.531Z,22.9
2022-12-31T00:25:04.542Z,22.8
2022-12-31T00:26:04.510Z,22.8
2022-12-31T00:27:04.485Z,22.8
2022-12-31T00:28:04.492Z,22.8
2022-12-31T00:29:04.508Z,22.8
2022-12-31T00:30:05.051Z,22.8
2022-12-31T00:31:04.519Z,22.8
2022-12-31T00:32:04.519Z,22.8
2022-12-31T00:33:04.532Z,22.8
2022-12-31T00:34:04.535Z,22.8
2022-12-31T00:35:04.517Z,22.7
2022-12-31T00:36:04.536Z,22.7
2022-12-31T00:37:04.526Z,22.7
2022-12-31T00:38:04.496Z,22.7
2022-12-31T00:39:04.520Z,22.7
2022-12-31T00:40:04.544Z,22.7
2022-12-31T00:41:04.517Z,22.7
2022-12-31T00:42:04.535Z,22.7
2022-12-31T00:43:04.475Z,22.7
2022-12-31T00:44:04.524Z,22.6
2022-12-31T00:45:04.485Z,22.6
2022-12-31T00:46:04.559Z,22.6
2022-12-31T00:47:04.536Z,22.6
2022-12-31T00:48:04.525Z,22.6
2022-12-31T00:49:04.483Z,22.6
2022-12-31T00:50:04.511Z,22.6
2022-12-31T00:51:04.769Z,22.5
2022-12-31T00:52:04.524Z,22.5
2022-12-31T00:53:04.537Z,22.5
2022-12-31T00:54:04.568Z,22.5
2022-12-31T00:55:04.506Z,22.5
2022-12-31T00:56:04.514Z,22.5
2022-12-31T00:57:04.505Z,22.5
2022-12-31T00:58:04.516Z,22.4
2022-12-31T00:59:04.517Z,22.5
2022-12-31T01:00:04.513Z,22.4
2022-12-31T01:01:04.900Z,22.4
2022-12-31T01:02:04.619Z,22.4
2022-12-31T01:03:04.568Z,22.4
2022-12-31T01:04:04.556Z,22.4
2022-12-31T01:05:04.517Z,22.4
2022-12-31T01:06:04.521Z,22.4
2022-12-31T01:07:04.575Z,22.4
2022-12-31T01:08:04.520Z,22.4
2022-12-31T01:09:04.488Z,22.4
2022-12-31T01:10:04.503Z,22.3
2022-12-31T01:11:04.505Z,22.3
2022-12-31T01:12:04.510Z,22.3
2022-12-31T01:13:04.486Z,22.3
2022-12-31T01:14:04.519Z,22.3
2022-12-31T01:15:04.490Z,22.3
2022-12-31T01:16:04.554Z,22.3
2022-12-31T01:17:04.612Z,22.3
2022-12-31T01:18:04.508Z,22.3
2022-12-31T01:19:04.503Z,22.3
2022-12-31T01:20:04.563Z,22.2
2022-12-31T01:21:05.117Z,22.2
2022-12-31T01:22:04.512Z,22.2
2022-12-31T01:23:04.525Z,22.2
2022-12-31T01:24:04.512Z,22.2
2022-12-31T01:25:04.491Z,22.2
2022-12-31T01:26:04.530Z,22.2
2022-12-31T01:27:04.509Z,22.2
2022-12-31T01:28:04.511Z,22.2
2022-12-31T01:29:04.570Z,22.2
2022-12-31T01:30:04.549Z,22.1
2022-12-31T01:31:04.555Z,22.1
2022-12-31T01:32:04.507Z,22.1
2022-12-31T01:33:04.506Z,22.1
2022-12-31T01:34:04.513Z,22.1
2022-12-31T01:35:04.553Z,22.1
2022-12-31T01:36:04.498Z,22.1
2022-12-31T01:37:04.519Z,22.1
2022-12-31T01:38:04.503Z,22.0
2022-12-31T01:39:04.530Z,22.1
2022-12-31T01:40:04.519Z,22.0
2022-12-31T01:41:04.557Z,22.0
2022-12-31T01:42:04.491Z,22.0
2022-12-31T01:43:04.525Z,22.0
2022-12-31T01:44:04.508Z,22.0
2022-12-31T01:45:04.527Z,21.9
2022-12-31T01:46:04.556Z,21.9
2022-12-31T01:47:04.547Z,21.9
2022-12-31T01:48:05.763Z,21.9
2022-12-31T01:49:04.521Z,21.9
2022-12-31T01:50:04.512Z,21.9
2022-12-31T01:51:04.512Z,21.9
2022-12-31T01:52:04.490Z,21.9
2022-12-31T01:53:04.551Z,21.9
2022-12-31T01:54:04.532Z,21.8
2022-12-31T01:55:04.714Z,21.8
2022-12-31T01:56:04.500Z,21.8
2022-12-31T01:57:04.519Z,21.8
2022-12-31T01:58:04.504Z,21.8
2022-12-31T01:59:04.567Z,21.8
2022-12-31T02:00:04.544Z,21.8
2022-12-31T02:01:04.603Z,21.8
2022-12-31T02:02:04.619Z,21.7
2022-12-31T02:03:04.534Z,21.7
2022-12-31T02:04:04.496Z,21.7
2022-12-31T02:05:04.554Z,21.7
2022-12-31T02:06:04.502Z,21.7
2022-12-31T02:07:04.537Z,21.7
2022-12-31T02:08:04.499Z,21.7
2022-12-31T02:09:04.534Z,21.7
2022-12-31T02:10:04.493Z,21.7
2022-12-31T02:11:05.344Z,21.7
2022-12-31T02:12:04.495Z,21.6
2022-12-31T02:13:04.550Z,21.6
2022-12-31T02:14:04.515Z,21.6
2022-12-31T02:15:04.522Z,21.6
2022-12-31T02:16:04.532Z,21.6
2022-12-31T02:17:04.548Z,21.6
2022-12-31T02:18:04.498Z,21.6
2022-12-31T02:19:04.544Z,21.6
2022-12-31T02:20:04.526Z,21.6
2022-12-31T02:21:04.532Z,21.6
2022-12-31T02:22:04.645Z,21.6
2022-12-31T02:23:31.001Z,21.4
2022-12-31T02:24:03.673Z,21.5
2022-12-31T02:25:03.685Z,21.5
2022-12-31T02:26:03.692Z,21.5
2022-12-31T02:27:03.696Z,21.5
2022-12-31T02:28:03.666Z,21.5
2022-12-31T02:29:03.727Z,21.5
2022-12-31T02:30:03.675Z,21.5
2022-12-31T02:31:03.721Z,21.5
2022-12-31T02:32:03.666Z,21.5
2022-12-31T02:33:03.692Z,21.5
2022-12-31T02:34:03.665Z,21.5
2022-12-31T02:35:03.734Z,21.5
2022-12-31T02:36:03.672Z,21.5
2022-12-31T02:37:03.706Z,21.5
2022-12-31T02:38:03.667Z,21.4
2022-12-31T02:39:03.701Z,21.4
2022-12-31T02:40:03.669Z,21.4
2022-12-31T02:41:03.732Z,21.4
2022-12-31T02:42:03.668Z,21.4
2022-12-31T02:43:03.695Z,21.4
2022-12-31T02:44:03.668Z,21.4
2022-12-31T02:45:03.698Z,21.4
2022-12-31T02:46:03.751Z,21.4
2022-12-31T02:47:03.747Z,21.4
2022-12-31T02:48:03.673Z,21.4
2022-12-31T02:49:03.712Z,21.4
2022-12-31T02:50:03.685Z,21.4
2022-12-31T02:51:03.698Z,21.4
2022-12-31T02:52:03.701Z,21.4
2022-12-31T02:53:03.737Z,21.4
2022-12-31T02:54:10.402Z,21.3
2022-12-31T02:55:04.168Z,21.3
2022-12-31T02:56:04.143Z,21.3
2022-12-31T02:57:04.152Z,21.3
2022-12-31T02:58:10.863Z,21.2
2022-12-31T02:59:04.599Z,21.3
2022-12-31T03:00:04.566Z,21.3
2022-12-31T03:01:04.712Z,21.3
2022-12-31T03:02:04.650Z,21.3
2022-12-31T03:03:04.591Z,21.3
2022-12-31T03:04:04.604Z,21.3
2022-12-31T03:05:04.648Z,21.3
2022-12-31T03:06:04.571Z,21.3
2022-12-31T03:07:04.604Z,21.3
2022-12-31T03:08:04.579Z,21.3
2022-12-31T03:09:04.595Z,21.3
2022-12-31T03:10:04.661Z,21.3
2022-12-31T03:11:04.614Z,21.3
2022-12-31T03:12:04.605Z,21.3
2022-12-31T03:13:04.622Z,21.2
2022-12-31T03:14:04.569Z,21.2
2022-12-31T03:15:04.597Z,21.2
2022-12-31T03:16:04.657Z,21.2
2022-12-31T03:17:04.589Z,21.2
2022-12-31T03:18:04.596Z,21.2
2022-12-31T03:19:04.623Z,21.2
2022-12-31T03:20:04.570Z,21.2
2022-12-31T03:21:04.743Z,21.2
2022-12-31T03:22:04.734Z,21.2
2022-12-31T03:23:04.733Z,21.2
2022-12-31T03:24:04.677Z,21.2
2022-12-31T03:25:04.605Z,21.2
2022-12-31T03:26:04.578Z,21.2
2022-12-31T03:27:04.595Z,21.2
2022-12-31T03:28:04.648Z,21.2
2022-12-31T03:29:04.615Z,21.2
2022-12-31T03:30:04.589Z,21.2
2022-12-31T03:31:04.665Z,21.2
2022-12-31T03:32:04.582Z,21.2
2022-12-31T03:33:04.609Z,21.1
2022-12-31T03:34:04.605Z,21.1
2022-12-31T03:35:04.604Z,21.2
2022-12-31T03:36:04.577Z,21.1
2022-12-31T03:37:04.607Z,21.1
2022-12-31T03:38:04.590Z,21.1
2022-12-31T03:39:04.605Z,21.1
2022-12-31T03:40:04.613Z,21.1
2022-12-31T03:41:04.605Z,21.1
2022-12-31T03:42:04.583Z,21.1
2022-12-31T03:43:04.610Z,21.1
2022-12-31T03:44:04.578Z,21.1
2022-12-31T03:45:04.622Z,21.1
2022-12-31T03:46:04.637Z,21.1
2022-12-31T03:47:04.606Z,21.1
2022-12-31T03:49:54.771Z,20.8
2022-12-31T03:50:04.882Z,20.9
2022-12-31T03:51:04.502Z,21.0
2022-12-31T03:52:04.557Z,21.0
2022-12-31T03:53:04.495Z,21.1
2022-12-31T03:54:04.513Z,21.1
2022-12-31T03:55:04.509Z,21.1
2022-12-31T03:56:04.539Z,21.1
2022-12-31T03:57:04.488Z,21.1
2022-12-31T03:58:04.570Z,21.1
2022-12-31T03:59:04.543Z,21.1
2022-12-31T04:00:04.562Z,21.1
2022-12-31T04:01:11.295Z,21.0
2022-12-31T04:02:03.975Z,21.0
2022-12-31T04:03:03.953Z,21.0
2022-12-31T04:04:03.987Z,21.0
2022-12-31T04:05:03.979Z,21.0
2022-12-31T04:06:03.951Z,21.0
2022-12-31T04:07:03.909Z,21.0
2022-12-31T04:08:03.943Z,21.0
2022-12-31T04:09:03.957Z,21.0
2022-12-31T04:10:04.005Z,21.0
2022-12-31T04:11:03.925Z,21.0
2022-12-31T04:12:03.949Z,21.0
2022-12-31T04:13:03.920Z,21.0
2022-12-31T04:14:03.938Z,21.0
2022-12-31T04:15:03.920Z,21.0
2022-12-31T04:16:04.053Z,21.0
2022-12-31T04:17:03.940Z,21.0
2022-12-31T04:18:03.939Z,21.0
2022-12-31T04:19:03.922Z,21.0
2022-12-31T04:20:03.954Z,21.0
2022-12-31T04:21:03.922Z,21.0
2022-12-31T04:22:03.993Z,21.0
2022-12-31T04:23:03.930Z,21.0
2022-12-31T04:24:04.206Z,21.0
2022-12-31T04:25:03.930Z,21.0
2022-12-31T04:26:03.949Z,21.0
2022-12-31T04:27:07.837Z,21.0
2022-12-31T04:28:03.972Z,21.0
2022-12-31T04:29:03.923Z,21.0
2022-12-31T04:30:03.951Z,21.0
2022-12-31T04:31:03.916Z,21.0
2022-12-31T04:32:03.990Z,21.0
2022-12-31T04:33:03.952Z,20.9
2022-12-31T04:34:03.988Z,20.9
2022-12-31T04:35:03.948Z,20.9
2022-12-31T04:36:03.955Z,20.9
2022-12-31T04:37:03.919Z,20.9
2022-12-31T04:38:03.948Z,20.9
2022-12-31T04:39:03.932Z,20.9
2022-12-31T04:40:06.576Z,20.9
2022-12-31T04:41:03.923Z,20.9
2022-12-31T04:42:03.992Z,20.9
2022-12-31T04:43:03.927Z,20.9
2022-12-31T04:44:03.956Z,20.9
2022-12-31T04:45:03.919Z,20.9
2022-12-31T04:46:04.039Z,20.9
2022-12-31T04:47:03.928Z,20.9
2022-12-31T04:48:03.953Z,20.9
2022-12-31T04:49:03.920Z,20.9
2022-12-31T04:50:03.955Z,20.9
2022-12-31T04:51:03.925Z,20.9
2022-12-31T04:52:03.976Z,20.9
2022-12-31T04:53:03.930Z,20.9
2022-12-31T04:54:03.945Z,20.9
2022-12-31T04:55:03.940Z,20.9
2022-12-31T04:56:03.966Z,20.9
2022-12-31T04:57:03.933Z,21.0
2022-12-31T04:58:04.011Z,21.0
2022-12-31T04:59:03.945Z,21.0
2022-12-31T05:00:03.950Z,21.1
2022-12-31T05:01:04.063Z,21.1
2022-12-31T05:02:04.071Z,21.2
2022-12-31T05:03:03.972Z,21.2
2022-12-31T05:04:03.977Z,21.2
2022-12-31T05:05:03.940Z,21.2
2022-12-31T05:06:03.966Z,21.3
2022-12-31T05:07:04.889Z,21.3
2022-12-31T05:08:03.958Z,21.3
2022-12-31T05:09:03.936Z,21.4
2022-12-31T05:10:03.992Z,21.4
2022-12-31T05:11:04.097Z,21.4
2022-12-31T05:12:04.088Z,21.4
2022-12-31T05:13:04.046Z,21.4
2022-12-31T05:14:04.090Z,21.5
2022-12-31T05:15:04.043Z,21.5
2022-12-31T05:16:04.166Z,21.6
2022-12-31T05:17:03.978Z,21.6
2022-12-31T05:18:03.981Z,21.7
2022-12-31T05:19:03.938Z,21.7
2022-12-31T05:20:03.988Z,21.8
2022-12-31T05:21:03.938Z,21.9
2022-12-31T05:22:03.996Z,21.9
2022-12-31T05:23:03.931Z,21.9
2022-12-31T05:24:03.961Z,22.0
2022-12-31T05:25:03.978Z,22.0
2022-12-31T05:26:03.980Z,22.1
2022-12-31T05:27:03.946Z,22.1
2022-12-31T05:28:04.014Z,22.2
2022-12-31T05:29:03.958Z,22.2
2022-12-31T05:30:03.977Z,22.2
2022-12-31T05:31:04.031Z,22.3
2022-12-31T05:32:03.967Z,22.3
2022-12-31T05:33:03.938Z,22.4
2022-12-31T05:34:04.012Z,22.4
2022-12-31T05:35:03.953Z,22.4
2022-12-31T05:36:04.022Z,22.4
2022-12-31T05:37:03.970Z,22.5
2022-12-31T05:38:03.975Z,22.5
2022-12-31T05:39:03.988Z,22.5
2022-12-31T05:40:04.005Z,22.6
2022-12-31T05:41:03.996Z,22.6
2022-12-31T05:42:03.972Z,22.6
2022-12-31T05:43:03.949Z,22.7
2022-12-31T05:44:03.970Z,22.7
2022-12-31T05:45:03.949Z,22.8
2022-12-31T05:46:04.117Z,22.8
2022-12-31T05:47:03.957Z,22.8
2022-12-31T05:48:03.973Z,22.9
2022-12-31T05:49:03.942Z,22.9
2022-12-31T05:50:03.971Z,22.9
2022-12-31T05:51:04.096Z,22.9
2022-12-31T05:52:04.070Z,23.0
2022-12-31T05:53:03.962Z,23.0
2022-12-31T05:54:04.012Z,23.0
2022-12-31T05:55:03.944Z,23.0
2022-12-31T05:56:03.998Z,23.0
2022-12-31T05:57:03.942Z,23.1
2022-12-31T05:58:04.013Z,23.1
2022-12-31T05:59:03.958Z,23.1
2022-12-31T06:00:03.966Z,23.1
2022-12-31T06:01:03.976Z,23.1
2022-12-31T06:02:03.981Z,23.1
2022-12-31T06:03:04.116Z,23.1
2022-12-31T06:04:10.729Z,23.1
2022-12-31T06:05:04.422Z,23.1
2022-12-31T06:06:05.094Z,23.2
2022-12-31T06:07:04.438Z,23.2
2022-12-31T06:08:04.456Z,23.2
2022-12-31T06:09:04.544Z,23.2
2022-12-31T06:10:04.521Z,23.2
2022-12-31T06:11:04.438Z,23.2
2022-12-31T06:12:04.447Z,23.1
2022-12-31T06:13:11.129Z,23.0
2022-12-31T06:14:03.891Z,23.0
2022-12-31T06:15:03.836Z,23.0
2022-12-31T06:16:10.665Z,22.9
2022-12-31T06:17:04.327Z,22.9
2022-12-31T06:18:04.351Z,22.9
2022-12-31T06:19:04.326Z,22.9
2022-12-31T06:20:08.985Z,22.9
2022-12-31T06:21:04.365Z,22.9
2022-12-31T06:22:04.353Z,22.9
2022-12-31T06:23:04.327Z,22.9
2022-12-31T06:24:04.361Z,22.9
2022-12-31T06:25:04.328Z,22.9
2022-12-31T06:26:04.378Z,22.9
2022-12-31T06:27:04.363Z,22.9
2022-12-31T06:28:04.416Z,22.9
2022-12-31T06:29:04.339Z,22.8
2022-12-31T06:30:04.361Z,22.9
2022-12-31T06:31:04.400Z,22.9
2022-12-31T06:32:04.375Z,22.9
2022-12-31T06:33:04.395Z,23.0
2022-12-31T06:34:04.366Z,23.1
2022-12-31T06:35:04.321Z,23.1
2022-12-31T06:36:04.380Z,23.2
2022-12-31T06:37:04.352Z,23.2
2022-12-31T06:38:04.355Z,23.2
2022-12-31T06:39:04.383Z,23.3
2022-12-31T06:40:04.351Z,23.3
2022-12-31T06:41:04.336Z,23.3
2022-12-31T06:42:04.371Z,23.3
2022-12-31T06:43:04.346Z,23.3
2022-12-31T06:44:04.374Z,23.4
2022-12-31T06:45:04.398Z,23.4
2022-12-31T06:46:04.520Z,23.4
2022-12-31T06:47:04.364Z,23.4
2022-12-31T06:48:04.361Z,23.4
2022-12-31T06:49:04.356Z,23.4
2022-12-31T06:50:04.393Z,23.4
2022-12-31T06:51:04.365Z,23.4
2022-12-31T06:52:04.364Z,23.4
2022-12-31T06:53:04.340Z,23.4
2022-12-31T06:54:04.362Z,23.4
2022-12-31T06:55:04.346Z,23.5
2022-12-31T06:56:04.385Z,23.5
2022-12-31T06:57:04.369Z,23.5
2022-12-31T06:58:04.369Z,23.5
2022-12-31T06:59:04.369Z,23.5
2022-12-31T07:00:04.364Z,23.4
2022-12-31T07:01:04.360Z,23.4
2022-12-31T07:02:04.440Z,23.4
2022-12-31T07:03:04.403Z,23.3
2022-12-31T07:04:04.378Z,23.3
2022-12-31T07:05:04.361Z,23.3
2022-12-31T07:06:04.384Z,23.2
2022-12-31T07:07:04.332Z,23.2
2022-12-31T07:08:04.373Z,23.2
2022-12-31T07:09:04.389Z,23.2
2022-12-31T07:10:04.383Z,23.2
2022-12-31T07:11:04.371Z,23.2
2022-12-31T07:12:04.382Z,23.2
2022-12-31T07:13:04.364Z,23.2
2022-12-31T07:15:16.646Z,23.2
2022-12-31T07:15:20.661Z,22.9
2022-12-31T07:16:04.428Z,23.1
2022-12-31T07:17:04.374Z,23.1
2022-12-31T07:18:04.364Z,23.2
2022-12-31T07:19:04.336Z,23.2
2022-12-31T07:20:04.440Z,23.2
2022-12-31T07:21:04.367Z,23.2
2022-12-31T07:22:04.383Z,23.2
2022-12-31T07:23:04.339Z,23.2
2022-12-31T07:24:04.379Z,23.2
2022-12-31T07:25:04.345Z,23.2
2022-12-31T07:26:04.372Z,23.2
2022-12-31T07:27:04.381Z,23.2
2022-12-31T07:28:04.393Z,23.2
2022-12-31T07:29:04.377Z,23.2
2022-12-31T07:30:04.366Z,23.2
2022-12-31T07:31:04.408Z,23.3
2022-12-31T07:32:04.412Z,23.3
2022-12-31T07:33:11.093Z,23.2
2022-12-31T07:34:03.829Z,23.4
2022-12-31T07:35:03.803Z,23.4
2022-12-31T07:36:03.840Z,23.4
2022-12-31T07:37:03.804Z,23.5
2022-12-31T07:38:03.850Z,23.5
2022-12-31T07:39:03.833Z,23.5
2022-12-31T07:40:03.860Z,23.5
2022-12-31T07:41:09.458Z,23.5
2022-12-31T07:42:03.829Z,23.6
2022-12-31T07:43:03.832Z,23.6
2022-12-31T07:44:03.829Z,23.6
2022-12-31T07:45:03.845Z,23.6
2022-12-31T07:46:03.834Z,23.6
2022-12-31T07:47:03.804Z,23.6
2022-12-31T07:48:03.841Z,23.6
2022-12-31T07:49:03.822Z,23.7
2022-12-31T07:50:03.874Z,23.7
2022-12-31T07:51:03.855Z,23.7
2022-12-31T07:52:03.840Z,23.6
2022-12-31T07:53:03.812Z,23.6
2022-12-31T07:54:07.491Z,23.6
2022-12-31T07:55:03.816Z,23.6
2022-12-31T07:56:03.833Z,23.5
2022-12-31T07:57:03.833Z,23.5
2022-12-31T07:58:03.863Z,23.5
2022-12-31T07:59:03.819Z,23.5
2022-12-31T08:00:03.852Z,23.5
2022-12-31T08:01:03.915Z,23.5
2022-12-31T08:02:04.094Z,23.5
2022-12-31T08:03:03.862Z,23.5
2022-12-31T08:04:03.862Z,23.4
2022-12-31T08:05:03.796Z,23.4
2022-12-31T08:06:03.844Z,23.4
2022-12-31T08:07:03.846Z,23.5
2022-12-31T08:08:03.851Z,23.5
2022-12-31T08:09:03.869Z,23.5
2022-12-31T08:10:03.854Z,23.6
2022-12-31T08:11:03.809Z,23.6
2022-12-31T08:12:03.865Z,23.6
2022-12-31T08:13:03.818Z,23.7
2022-12-31T08:14:03.850Z,23.7
2022-12-31T08:15:03.842Z,23.7
2022-12-31T08:16:03.932Z,23.7
2022-12-31T08:17:03.812Z,23.7
2022-12-31T08:18:03.841Z,23.7
2022-12-31T08:19:03.819Z,23.8
2022-12-31T08:20:03.861Z,23.8
2022-12-31T08:21:03.842Z,23.8
2022-12-31T08:22:03.845Z,23.8
2022-12-31T08:23:03.817Z,23.9
2022-12-31T08:24:03.877Z,23.9
2022-12-31T08:25:03.819Z,23.9
2022-12-31T08:27:40.773Z,23.6
2022-12-31T08:28:04.482Z,23.8
2022-12-31T08:29:04.457Z,23.9
2022-12-31T08:30:04.477Z,23.9
2022-12-31T08:31:04.457Z,24.0
2022-12-31T08:32:04.530Z,24.0
2022-12-31T08:33:04.494Z,24.0
2022-12-31T08:34:06.196Z,24.0
2022-12-31T08:35:04.480Z,23.9
2022-12-31T08:36:04.495Z,23.9
2022-12-31T08:37:04.465Z,23.9
2022-12-31T08:38:04.498Z,23.8
2022-12-31T08:39:04.503Z,23.8
2022-12-31T08:40:04.481Z,23.8
2022-12-31T08:41:04.454Z,23.8
2022-12-31T08:42:04.752Z,23.8
2022-12-31T08:43:04.472Z,23.7
2022-12-31T08:44:04.507Z,23.7
2022-12-31T08:45:04.496Z,23.7
2022-12-31T08:46:04.628Z,23.7
2022-12-31T08:47:04.493Z,23.7
2022-12-31T08:48:04.502Z,23.7
2022-12-31T08:49:04.487Z,23.7
2022-12-31T08:50:04.497Z,23.7
2022-12-31T08:51:04.502Z,23.7
2022-12-31T08:52:04.504Z,23.7
2022-12-31T08:53:04.480Z,23.7
2022-12-31T08:54:04.539Z,23.6
2022-12-31T08:55:04.495Z,23.6
2022-12-31T08:56:04.523Z,23.6
2022-12-31T08:57:04.508Z,23.6
2022-12-31T08:58:04.502Z,23.6
2022-12-31T08:59:04.466Z,23.6
2022-12-31T09:00:04.539Z,23.6
2022-12-31T09:01:04.536Z,23.6
2022-12-31T09:02:04.614Z,23.6
2022-12-31T09:03:04.506Z,23.5
2022-12-31T09:04:04.599Z,23.5
2022-12-31T09:05:04.507Z,23.5
2022-12-31T09:06:04.505Z,23.5
2022-12-31T09:07:04.485Z,23.5
2022-12-31T09:08:04.499Z,23.5
2022-12-31T09:09:04.573Z,23.6
2022-12-31T09:10:04.596Z,23.6
2022-12-31T09:11:04.577Z,23.6
2022-12-31T09:12:04.614Z,23.6
2022-12-31T09:13:04.569Z,23.6
2022-12-31T09:14:04.625Z,23.7
2022-12-31T09:15:22.429Z,23.7
2022-12-31T09:16:55.839Z,23.4
2022-12-31T09:17:06.845Z,23.5
2022-12-31T09:18:06.256Z,23.6
2022-12-31T09:19:06.059Z,23.7
2022-12-31T09:20:06.266Z,23.8
2022-12-31T09:21:06.240Z,23.8
2022-12-31T09:22:06.210Z,23.9
2022-12-31T09:23:06.222Z,23.8
2022-12-31T09:24:09.533Z,23.8
2022-12-31T09:25:06.244Z,23.7
2022-12-31T09:26:06.216Z,23.7
2022-12-31T09:27:06.199Z,23.6
2022-12-31T09:28:06.251Z,23.6
2022-12-31T09:29:06.513Z,23.6
2022-12-31T09:30:06.270Z,23.7
2022-12-31T09:31:06.246Z,23.7
2022-12-31T09:32:06.399Z,23.7
2022-12-31T09:33:06.173Z,23.6
2022-12-31T09:34:06.317Z,23.6
2022-12-31T09:35:06.290Z,23.6
2022-12-31T09:36:06.061Z,23.6
2022-12-31T09:37:06.251Z,23.6
2022-12-31T09:38:11.243Z,23.5
2022-12-31T09:39:06.300Z,23.5
2022-12-31T09:40:06.245Z,23.5
2022-12-31T09:41:06.327Z,23.4
2022-12-31T09:42:06.278Z,23.4
2022-12-31T09:43:06.309Z,23.4
2022-12-31T09:44:06.289Z,23.3
2022-12-31T09:45:06.233Z,23.3
2022-12-31T09:46:06.372Z,23.3
2022-12-31T09:47:06.323Z,23.3
2022-12-31T09:48:06.367Z,23.3
2022-12-31T09:49:06.285Z,23.3
2022-12-31T09:50:06.211Z,23.3
2022-12-31T09:51:06.204Z,23.3
2022-12-31T09:52:06.272Z,23.3
2022-12-31T09:53:06.354Z,23.3
2022-12-31T09:54:06.355Z,23.3
2022-12-31T09:55:06.193Z,23.3
2022-12-31T09:56:06.368Z,23.3
2022-12-31T09:59:08.623Z,23.0
2022-12-31T10:00:04.295Z,23.2
2022-12-31T10:01:04.388Z,23.2
2022-12-31T10:02:04.491Z,23.2
2022-12-31T10:03:04.371Z,23.2
2022-12-31T10:04:04.285Z,23.2
2022-12-31T10:05:04.323Z,23.3
2022-12-31T10:06:04.296Z,23.2
2022-12-31T10:07:04.369Z,23.2
2022-12-31T10:08:04.312Z,23.2
2022-12-31T10:09:04.325Z,23.3
2022-12-31T10:10:04.304Z,23.3
2022-12-31T10:11:04.383Z,23.3
2022-12-31T10:12:04.288Z,23.3
2022-12-31T10:13:04.346Z,23.3
2022-12-31T10:14:04.303Z,23.3
2022-12-31T10:15:04.406Z,23.3
2022-12-31T10:16:04.351Z,23.3
2022-12-31T10:17:04.445Z,23.3
2022-12-31T10:18:04.291Z,23.3
2022-12-31T10:19:04.359Z,23.3
2022-12-31T10:20:04.290Z,23.3
2022-12-31T10:21:04.381Z,23.3
2022-12-31T10:22:04.390Z,23.3
2022-12-31T10:23:04.313Z,23.3
2022-12-31T10:24:04.300Z,23.3
2022-12-31T10:25:04.434Z,23.3
2022-12-31T10:26:04.313Z,23.2
2022-12-31T10:27:04.321Z,23.2
2022-12-31T10:28:04.318Z,23.2
2022-12-31T10:29:04.330Z,23.2
2022-12-31T10:30:04.336Z,23.2
2022-12-31T10:31:04.567Z,23.2
2022-12-31T10:32:04.342Z,23.3
2022-12-31T10:33:05.298Z,23.2
2022-12-31T10:34:04.323Z,23.2
2022-12-31T10:35:04.336Z,23.2
2022-12-31T10:36:04.310Z,23.2
2022-12-31T10:37:04.359Z,23.2
2022-12-31T10:38:04.298Z,23.2
2022-12-31T10:39:08.946Z,23.2
2022-12-31T10:40:04.313Z,23.2
2022-12-31T10:41:04.314Z,23.3
2022-12-31T10:42:04.406Z,23.3
2022-12-31T10:43:04.357Z,23.3
2022-12-31T10:44:04.387Z,23.3
2022-12-31T10:45:04.337Z,23.3
2022-12-31T10:46:04.378Z,23.3
2022-12-31T10:47:04.346Z,23.3
2022-12-31T10:48:04.302Z,23.3
2022-12-31T10:49:04.354Z,23.3
2022-12-31T10:50:04.303Z,23.3
2022-12-31T10:51:04.954Z,23.3
2022-12-31T10:52:04.300Z,23.3
2022-12-31T10:53:04.337Z,23.3
2022-12-31T10:54:04.308Z,23.3
2022-12-31T10:55:04.364Z,23.3
2022-12-31T10:56:04.307Z,23.3
2022-12-31T10:57:04.322Z,23.3
2022-12-31T10:58:04.720Z,23.3
2022-12-31T10:59:04.334Z,23.3
2022-12-31T11:00:04.336Z,23.3
2022-12-31T11:01:04.400Z,23.3
2022-12-31T11:02:04.429Z,23.3
2022-12-31T11:03:04.406Z,23.3
2022-12-31T11:04:04.343Z,23.2
2022-12-31T11:05:04.342Z,23.2
2022-12-31T11:06:04.298Z,23.2
2022-12-31T11:07:04.338Z,23.2
2022-12-31T11:08:04.308Z,23.2
2022-12-31T11:09:04.363Z,23.2
2022-12-31T11:10:04.350Z,23.2
2022-12-31T11:11:04.367Z,23.2
2022-12-31T11:12:04.312Z,23.2
2022-12-31T11:13:04.329Z,23.2
2022-12-31T11:14:04.298Z,23.2
2022-12-31T11:15:04.342Z,23.1
2022-12-31T11:16:04.418Z,23.1
2022-12-31T11:17:26.745Z,23.1
2022-12-31T11:19:12.019Z,22.8
2022-12-31T11:20:04.017Z,23.0
2022-12-31T11:21:04.476Z,23.0
2022-12-31T11:22:03.793Z,23.0
2022-12-31T11:23:03.767Z,23.0
2022-12-31T11:24:03.773Z,23.0
2022-12-31T11:25:03.754Z,23.1
2022-12-31T11:26:03.803Z,23.1
2022-12-31T11:27:03.745Z,23.1
2022-12-31T11:28:03.807Z,23.1
2022-12-31T11:29:03.812Z,23.1
2022-12-31T11:30:04.822Z,23.0
2022-12-31T11:31:03.764Z,23.0
2022-12-31T11:32:03.781Z,23.0
2022-12-31T11:33:03.864Z,23.0
2022-12-31T11:34:03.846Z,23.0
2022-12-31T11:35:03.752Z,23.0
2022-12-31T11:36:03.781Z,23.1
2022-12-31T11:37:03.745Z,23.1
2022-12-31T11:38:03.790Z,23.1
2022-12-31T11:39:03.772Z,23.1
2022-12-31T11:40:03.895Z,23.1
2022-12-31T11:41:03.752Z,23.1
2022-12-31T11:42:03.784Z,23.0
2022-12-31T11:43:04.795Z,23.1
2022-12-31T11:44:03.785Z,23.1
2022-12-31T11:45:03.741Z,23.1
2022-12-31T11:46:03.856Z,23.1
2022-12-31T11:47:03.771Z,23.1
2022-12-31T11:48:29.611Z,23.1
2022-12-31T11:49:03.973Z,23.0
2022-12-31T11:50:03.765Z,23.0
2022-12-31T11:51:03.771Z,23.0
2022-12-31T11:52:03.788Z,23.0
2022-12-31T11:53:03.772Z,23.0
2022-12-31T11:54:03.771Z,23.0
2022-12-31T11:55:03.752Z,23.0
2022-12-31T11:56:03.795Z,23.1
2022-12-31T11:57:03.783Z,23.1
2022-12-31T11:58:03.809Z,23.1
2022-12-31T11:59:09.283Z,23.1
2022-12-31T12:00:03.806Z,23.1
2022-12-31T12:01:03.809Z,23.1
2022-12-31T12:02:03.817Z,23.1
2022-12-31T12:03:03.777Z,23.1
2022-12-31T12:04:03.864Z,23.1
2022-12-31T12:05:08.523Z,23.1
2022-12-31T12:06:03.822Z,23.1
2022-12-31T12:07:03.769Z,23.2
2022-12-31T12:08:03.826Z,23.2
2022-12-31T12:09:03.740Z,23.2
2022-12-31T12:10:03.795Z,23.2
2022-12-31T12:11:03.771Z,23.2
2022-12-31T12:12:03.802Z,23.2
2022-12-31T12:13:03.767Z,23.3
2022-12-31T12:14:03.781Z,23.3
2022-12-31T12:16:35.732Z,23.1
2022-12-31T12:17:05.673Z,23.2
2022-12-31T12:18:05.076Z,23.3
2022-12-31T12:19:04.410Z,23.3
2022-12-31T12:20:04.398Z,23.4
2022-12-31T12:21:04.397Z,23.4
2022-12-31T12:22:04.584Z,23.4
2022-12-31T12:23:04.440Z,23.4
2022-12-31T12:24:04.428Z,23.4
2022-12-31T12:25:04.447Z,23.4
2022-12-31T12:26:04.393Z,23.5
2022-12-31T12:27:04.388Z,23.5
2022-12-31T12:28:04.427Z,23.6
2022-12-31T12:29:04.408Z,23.6
2022-12-31T12:30:04.397Z,23.6
2022-12-31T12:31:04.444Z,23.6
2022-12-31T12:32:04.402Z,23.6
2022-12-31T12:33:04.389Z,23.6
2022-12-31T12:34:04.397Z,23.6
2022-12-31T12:35:04.414Z,23.6
2022-12-31T12:36:04.403Z,23.5
2022-12-31T12:37:04.381Z,23.5
2022-12-31T12:38:04.433Z,23.5
2022-12-31T12:39:04.395Z,23.4
2022-12-31T12:40:04.419Z,23.4
2022-12-31T12:41:04.406Z,23.4
2022-12-31T12:42:04.413Z,23.4
2022-12-31T12:43:04.413Z,23.4
2022-12-31T12:44:04.413Z,23.4
2022-12-31T12:45:04.383Z,23.4
2022-12-31T12:46:04.429Z,23.4
2022-12-31T12:47:04.455Z,23.4
2022-12-31T12:48:04.412Z,23.4
2022-12-31T12:49:04.416Z,23.4
2022-12-31T12:50:04.418Z,23.4
2022-12-31T12:51:04.381Z,23.4
2022-12-31T12:52:04.440Z,23.4
2022-12-31T12:53:04.435Z,23.4
2022-12-31T12:54:04.406Z,23.4
2022-12-31T12:55:04.433Z,23.4
2022-12-31T12:56:04.414Z,23.4
2022-12-31T12:57:04.374Z,23.4
2022-12-31T12:58:04.408Z,23.4
2022-12-31T12:59:04.416Z,23.4
2022-12-31T13:00:04.489Z,23.4
2022-12-31T13:02:54.651Z,23.0
2022-12-31T13:03:04.368Z,23.1
2022-12-31T13:04:33.666Z,23.2
2022-12-31T13:05:04.363Z,23.2
2022-12-31T13:06:04.300Z,23.2
2022-12-31T13:07:04.339Z,23.2
2022-12-31T13:08:04.344Z,23.3
2022-12-31T13:09:04.321Z,23.2
2022-12-31T13:10:04.295Z,23.2
2022-12-31T13:11:04.374Z,23.2
2022-12-31T13:12:07.801Z,23.2
2022-12-31T13:13:23.273Z,23.2
2022-12-31T13:14:04.473Z,23.2
2022-12-31T13:15:04.335Z,23.2
2022-12-31T13:16:04.370Z,23.2
2022-12-31T13:17:04.373Z,23.2
2022-12-31T13:18:04.324Z,23.2
2022-12-31T13:19:04.328Z,23.1
2022-12-31T13:20:04.311Z,23.1
2022-12-31T13:21:04.333Z,23.1
2022-12-31T13:22:04.335Z,23.1
2022-12-31T13:23:04.367Z,23.1
2022-12-31T13:24:04.318Z,23.1
2022-12-31T13:25:04.349Z,23.1